Time;durP1;ratioP1;P1;durP2;ratioP2;P2;SDS_P1;SDS_P2;PMS_P1;PMS_P2;Temp;Humidity;BMP_temperature;BMP_pressure;BME280_temperature;BME280_humidity;BME280_pressure;Samples;Min_cycle;Max_cycle;Signal;HPM_P1;HPM_P2
2023/08/06 00:00:02;;;;;;;18.17;11.90;;;;;;;-143.84;99.81;45096.66;5091819;28;20443;-53
2023/08/06 00:02:31;;;;;;;25.50;14.10;;;;;;;-143.84;99.94;45068.13;5091483;28;20576;-53
2023/08/06 00:04:58;;;;;;;23.73;13.07;;;;;;;-143.84;99.79;45054.78;5092077;28;20436;-53
2023/08/06 00:07:25;;;;;;;27.60;12.10;;;;;;;-143.84;100.00;45068.13;5091765;28;20466;-52
2023/08/06 00:09:52;;;;;;;30.37;14.07;;;;;;;-143.84;99.69;45073.81;5091893;28;20480;-53
2023/08/06 00:12:19;;;;;;;23.50;13.30;;;;;;;-143.84;100.00;45077.63;5091809;28;20494;-53
2023/08/06 00:14:46;;;;;;;18.57;12.43;;;;;;;-143.84;99.63;45083.34;5091759;28;20432;-53
2023/08/06 00:17:14;;;;;;;21.67;13.13;;;;;;;-143.84;99.57;45089.06;5091460;28;20933;-53
2023/08/06 00:19:43;;;;;;;19.17;11.43;;;;;;;-143.84;99.50;45073.81;5091725;28;20440;-53
2023/08/06 00:22:10;;;;;;;23.63;12.20;;;;;;;-143.84;99.43;45081.44;5091594;28;20444;-52
2023/08/06 00:24:37;;;;;;;19.27;13.30;;;;;;;-143.84;99.44;45071.91;5091276;28;20436;-53
2023/08/06 00:27:05;;;;;;;22.57;12.20;;;;;;;-143.84;99.32;45104.28;5090878;28;20513;-53
2023/08/06 00:29:32;;;;;;;19.63;13.50;;;;;;;-143.84;99.46;45087.16;5090657;28;20483;-53
2023/08/06 00:31:59;;;;;;;16.97;13.50;;;;;;;-143.84;99.83;45075.72;5090952;28;20432;-53
2023/08/06 00:34:26;;;;;;;23.00;13.57;;;;;;;-143.84;99.42;45054.78;5091314;28;20432;-53
2023/08/06 00:36:55;;;;;;;18.67;14.50;;;;;;;-143.84;100.00;45083.34;5091399;28;20451;-53
2023/08/06 00:39:22;;;;;;;23.93;13.60;;;;;;;-143.84;99.83;45115.72;5091024;28;20451;-52
2023/08/06 00:41:49;;;;;;;21.00;12.87;;;;;;;-143.84;99.74;45083.34;5091160;28;20428;-53
2023/08/06 00:44:17;;;;;;;25.43;14.20;;;;;;;-143.84;99.91;45087.16;5089923;28;20795;-53
2023/08/06 00:46:44;;;;;;;17.20;13.00;;;;;;;-143.84;99.88;45075.72;5091225;28;20443;-52
2023/08/06 00:49:11;;;;;;;17.30;13.50;;;;;;;-143.84;99.67;45066.22;5091078;28;20428;-52
2023/08/06 00:51:38;;;;;;;24.33;13.73;;;;;;;-143.84;99.63;45052.88;5090780;28;20451;-52
2023/08/06 00:54:07;;;;;;;25.30;14.40;;;;;;;-143.84;99.60;45106.19;5090852;28;20465;-53
2023/08/06 00:56:36;;;;;;;25.27;13.80;;;;;;;-143.84;99.15;45092.88;5091001;28;20490;-53
2023/08/06 00:59:04;;;;;;;20.03;13.43;;;;;;;-143.84;99.17;45085.25;5090975;28;20431;-53
2023/08/06 01:01:31;;;;;;;16.20;12.87;;;;;;;-143.84;99.12;45083.34;5090971;28;20443;-52
2023/08/06 01:03:58;;;;;;;19.10;14.10;;;;;;;-143.84;99.21;45104.28;5090286;28;20888;-52
2023/08/06 01:06:36;;;;;;;18.20;13.00;;;;;;;-143.84;99.26;45066.22;5090770;28;20436;-52
2023/08/06 01:09:16;;;;;;;28.00;13.67;;;;;;;-143.84;99.13;45090.97;5090420;28;20500;-52
2023/08/06 01:11:55;;;;;;;18.63;14.00;;;;;;;-143.84;99.26;45075.72;5090684;28;20455;-53
2023/08/06 01:14:29;;;;;;;23.73;14.40;;;;;;;-143.84;99.40;45083.34;5090701;28;20520;-53
2023/08/06 01:16:58;;;;;;;15.70;12.90;;;;;;;-143.84;99.61;45083.34;5090588;28;20938;-53
2023/08/06 01:19:25;;;;;;;16.90;13.00;;;;;;;-143.84;99.74;45070.00;5090549;28;20917;-52
2023/08/06 01:21:54;;;;;;;22.00;13.43;;;;;;;-143.84;99.90;45073.81;5090737;28;20914;-53
2023/08/06 01:24:21;;;;;;;21.60;12.70;;;;;;;-143.84;99.85;45104.28;5090012;28;20444;-53
2023/08/06 01:26:56;;;;;;;16.70;13.20;;;;;;;-143.84;100.00;45058.59;5090413;28;20436;-53
2023/08/06 01:29:29;;;;;;;15.93;11.97;;;;;;;-143.84;99.89;45094.78;5090235;28;20952;-53
2023/08/06 01:31:58;;;;;;;21.43;13.50;;;;;;;-143.84;100.00;45100.47;5090482;28;20448;-53
2023/08/06 01:34:29;;;;;;;20.60;12.83;;;;;;;-143.84;100.00;45083.34;5090446;28;20443;-53
2023/08/06 01:36:58;;;;;;;25.43;13.30;;;;;;;-143.84;100.00;45100.47;5090065;28;20501;-53
2023/08/06 01:39:25;;;;;;;24.43;13.20;;;;;;;-143.84;100.00;45098.56;5090032;28;20440;-53
2023/08/06 01:41:52;;;;;;;19.27;13.10;;;;;;;-143.84;100.00;45060.50;5090167;28;20435;-53
2023/08/06 01:44:19;;;;;;;19.13;14.23;;;;;;;-143.84;99.86;45089.06;5090128;28;20869;-53
2023/08/06 01:46:46;;;;;;;21.60;13.63;;;;;;;-143.84;100.00;45104.28;5090103;28;20452;-52
2023/08/06 01:49:14;;;;;;;19.30;13.70;;;;;;;-143.84;100.00;45079.53;5090324;28;20440;-53
2023/08/06 01:51:41;;;;;;;20.70;14.40;;;;;;;-143.84;100.00;45075.72;5089477;28;21104;-53
2023/08/06 01:54:09;;;;;;;25.00;14.27;;;;;;;-143.84;100.00;45100.47;5089712;28;20436;-53
2023/08/06 01:56:36;;;;;;;24.40;14.20;;;;;;;-143.84;100.00;45104.28;5089954;28;20509;-52
2023/08/06 01:59:03;;;;;;;21.50;13.10;;;;;;;-143.84;100.00;45090.97;5089605;28;20428;-53
2023/08/06 02:01:30;;;;;;;22.77;12.27;;;;;;;-143.84;100.00;45073.81;5089902;28;20440;-53
2023/08/06 02:03:58;;;;;;;18.23;12.77;;;;;;;-143.84;99.69;45083.34;5089516;28;20536;-52
2023/08/06 02:06:26;;;;;;;20.00;13.30;;;;;;;-143.84;99.66;45102.38;5089858;28;20444;-53
2023/08/06 02:08:53;;;;;;;17.60;13.30;;;;;;;-143.84;99.75;45056.69;5089464;28;20493;-52
2023/08/06 02:11:22;;;;;;;17.77;14.37;;;;;;;-143.84;99.69;45075.72;5089158;28;20529;-53
2023/08/06 02:13:49;;;;;;;38.83;13.57;;;;;;;-143.84;100.00;45092.88;5089359;28;20573;-53
2023/08/06 02:16:16;;;;;;;23.67;13.73;;;;;;;-143.84;100.00;45087.16;5089344;28;20498;-52
2023/08/06 02:18:43;;;;;;;23.40;13.63;;;;;;;-143.84;100.00;45070.00;5089694;28;20465;-52
2023/08/06 02:21:10;;;;;;;23.00;13.90;;;;;;;-143.84;100.00;45064.31;5089246;28;20436;-52
2023/08/06 02:23:37;;;;;;;22.33;13.83;;;;;;;-143.84;100.00;45077.63;5089523;28;20953;-53
2023/08/06 02:26:05;;;;;;;22.87;14.33;;;;;;;-143.84;100.00;45077.63;5089421;28;21030;-53
2023/08/06 02:28:34;;;;;;;25.43;14.87;;;;;;;-143.84;100.00;45066.22;5089663;28;20447;-52
2023/08/06 02:31:01;;;;;;;19.60;14.60;;;;;;;-143.84;100.00;45085.25;5089258;28;20479;-52
2023/08/06 02:33:28;;;;;;;38.80;14.00;;;;;;;-143.84;100.00;45058.59;5089703;28;20432;-52
2023/08/06 02:36:01;;;;;;;22.67;14.37;;;;;;;-143.84;100.00;45087.16;5089473;28;20505;-52
2023/08/06 02:38:28;;;;;;;27.00;13.10;;;;;;;-143.84;100.00;45066.22;5089593;28;20839;-53
2023/08/06 02:40:55;;;;;;;27.93;15.00;;;;;;;-143.84;100.00;45102.38;5089383;28;20436;-53
2023/08/06 02:43:22;;;;;;;24.90;13.50;;;;;;;-143.84;100.00;45090.97;5089329;28;20485;-52
2023/08/06 02:45:51;;;;;;;20.43;13.70;;;;;;;-143.84;100.00;45081.44;5089138;28;20504;-53
2023/08/06 02:48:18;;;;;;;19.73;15.70;;;;;;;-143.84;100.00;45071.91;5089595;28;20439;-53
2023/08/06 02:50:45;;;;;;;18.97;14.40;;;;;;;-143.84;100.00;45052.88;5089163;28;20491;-52
2023/08/06 02:53:12;;;;;;;24.63;13.60;;;;;;;-143.84;100.00;45094.78;5089459;28;20493;-52
2023/08/06 02:55:39;;;;;;;17.70;13.27;;;;;;;-143.84;100.00;45100.47;5089569;28;20436;-53
2023/08/06 02:58:06;;;;;;;15.13;11.37;;;;;;;-143.84;100.00;45090.97;5089471;28;21030;-53
2023/08/06 03:00:33;;;;;;;25.43;13.70;;;;;;;-143.84;100.00;45085.25;5089364;28;20478;-52
2023/08/06 03:03:02;;;;;;;23.20;13.93;;;;;;;-143.84;100.00;45098.56;5089268;28;20901;-52
2023/08/06 03:05:29;;;;;;;25.30;13.43;;;;;;;-143.84;100.00;45070.00;5088916;28;20450;-53
2023/08/06 03:07:56;;;;;;;14.43;11.27;;;;;;;-143.84;100.00;45083.34;5092478;28;20473;-52
2023/08/06 03:10:23;;;;;;;23.47;12.27;;;;;;;-143.84;100.00;45077.63;5093429;28;20993;-52
2023/08/06 03:12:50;;;;;;;14.60;11.47;;;;;;;-143.84;100.00;45081.44;5092744;28;20431;-52
2023/08/06 03:15:17;;;;;;;21.53;11.67;;;;;;;-143.84;99.92;45090.97;5093010;28;20864;-51
2023/08/06 03:17:45;;;;;;;18.93;12.60;;;;;;;-143.84;99.59;45081.44;5092807;28;20945;-53
2023/08/06 03:20:13;;;;;;;17.57;12.13;;;;;;;-143.84;99.67;45098.56;5092760;28;20440;-52
2023/08/06 03:22:40;;;;;;;15.60;12.17;;;;;;;-143.84;99.50;45111.91;5092832;28;20436;-52
2023/08/06 03:25:08;;;;;;;24.57;12.97;;;;;;;-143.84;99.48;45089.06;5092507;28;20448;-52
2023/08/06 03:27:35;;;;;;;16.47;12.07;;;;;;;-143.84;99.40;45098.56;5092733;28;20444;-53
2023/08/06 03:30:02;;;;;;;22.67;13.90;;;;;;;-143.84;99.30;45081.44;5092695;28;20432;-53
2023/08/06 03:32:29;;;;;;;17.47;12.63;;;;;;;-143.84;99.40;45081.44;5092573;28;20436;-52
2023/08/06 03:34:56;;;;;;;15.13;13.73;;;;;;;-143.84;99.58;45085.25;5092438;28;20444;-52
2023/08/06 03:37:25;;;;;;;22.93;13.53;;;;;;;-143.84;99.38;45096.66;5092432;28;20994;-52
2023/08/06 03:39:52;;;;;;;14.90;12.30;;;;;;;-143.84;99.46;45089.06;5092626;28;20854;-52
2023/08/06 03:42:19;;;;;;;23.63;13.17;;;;;;;-143.84;99.63;45070.00;5092249;28;20432;-53
2023/08/06 03:44:47;;;;;;;15.50;10.97;;;;;;;-143.84;99.98;45090.97;5092764;28;20436;-52
2023/08/06 03:47:14;;;;;;;18.73;12.10;;;;;;;-143.84;99.61;45056.69;5092318;28;20448;-53
2023/08/06 03:49:41;;;;;;;16.00;11.60;;;;;;;-143.84;98.40;45068.13;5092141;28;20853;-52
2023/08/06 03:52:08;;;;;;;16.10;11.83;;;;;;;-143.84;96.54;45075.72;5092167;28;21051;-52
2023/08/06 03:54:37;;;;;;;29.40;12.37;;;;;;;-143.84;96.95;45079.53;5092303;28;20771;-53
2023/08/06 03:57:05;;;;;;;15.30;11.47;;;;;;;-143.84;97.43;45079.53;5092397;28;20902;-52
2023/08/06 03:59:32;;;;;;;16.17;11.60;;;;;;;-143.84;97.93;45096.66;5092239;28;20466;-52
2023/08/06 04:01:59;;;;;;;17.00;10.70;;;;;;;-143.84;97.79;45043.34;5091686;28;20489;-52
2023/08/06 04:04:26;;;;;;;22.03;10.90;;;;;;;-143.84;97.73;45113.81;5092123;28;20501;-52
2023/08/06 04:06:53;;;;;;;21.23;10.63;;;;;;;-143.84;96.07;45068.13;5091873;28;20493;-52
2023/08/06 04:09:20;;;;;;;15.23;9.67;;;;;;;-143.84;94.07;45090.97;5091805;28;20448;-53
2023/08/06 04:11:49;;;;;;;11.00;9.17;;;;;;;-143.84;92.71;45073.81;5091782;28;20836;-52
2023/08/06 04:14:16;;;;;;;10.63;8.00;;;;;;;-143.84;90.71;45052.88;5091708;28;20440;-53
2023/08/06 04:16:43;;;;;;;8.97;7.70;;;;;;;-143.84;89.45;45037.66;5092108;28;20420;-52
2023/08/06 04:19:10;;;;;;;18.83;7.80;;;;;;;-143.84;89.47;45050.97;5091916;28;20481;-53
2023/08/06 04:21:37;;;;;;;14.60;8.53;;;;;;;-143.84;88.42;45037.66;5091746;28;20494;-52
2023/08/06 04:24:05;;;;;;;12.30;7.77;;;;;;;-143.84;86.70;45033.84;5091505;28;20918;-53
2023/08/06 04:26:32;;;;;;;14.17;7.70;;;;;;;-143.84;85.08;45018.59;5091544;28;20516;-53
2023/08/06 04:29:00;;;;;;;15.90;6.63;;;;;;;-143.84;83.52;45026.22;5091241;28;20505;-52
2023/08/06 04:31:27;;;;;;;13.93;7.13;;;;;;;-143.84;81.59;45037.66;5091184;28;20542;-53
2023/08/06 04:33:54;;;;;;;12.10;7.10;;;;;;;-143.84;80.70;45024.31;5091121;28;20440;-53
2023/08/06 04:36:21;;;;;;;15.20;7.13;;;;;;;-143.84;79.69;45026.22;5091529;28;20436;-53
2023/08/06 04:38:49;;;;;;;15.00;7.83;;;;;;;-143.84;79.62;44999.56;5091175;28;20440;-53
2023/08/06 04:41:16;;;;;;;8.10;6.67;;;;;;;-143.84;79.11;45012.88;5091060;28;20440;-52
2023/08/06 04:43:43;;;;;;;8.00;6.20;;;;;;;-143.84;78.05;45031.94;5090896;28;21000;-53
2023/08/06 04:46:11;;;;;;;13.53;7.00;;;;;;;-143.84;77.05;45012.88;5090702;28;20440;-53
2023/08/06 04:48:38;;;;;;;13.80;6.37;;;;;;;-143.84;76.52;45018.59;5091348;28;20540;-53
2023/08/06 04:51:05;;;;;;;6.63;6.00;;;;;;;-143.84;76.86;45020.50;5090992;28;20548;-52
2023/08/06 04:53:32;;;;;;;9.17;6.57;;;;;;;-143.84;75.40;44995.75;5090857;28;21210;-52
2023/08/06 04:55:59;;;;;;;10.70;6.17;;;;;;;-143.84;75.48;44999.56;5090963;28;20529;-52
2023/08/06 04:58:27;;;;;;;14.90;7.20;;;;;;;-143.84;76.21;44999.56;5090334;28;20436;-52
2023/08/06 05:00:54;;;;;;;11.47;6.80;;;;;;;-143.84;75.87;45012.88;5090637;28;20509;-53
2023/08/06 05:03:24;;;;;;;8.10;6.10;;;;;;;-143.84;76.25;44999.56;5090048;28;20515;-53
2023/08/06 05:05:51;;;;;;;13.57;6.87;;;;;;;-143.84;76.13;45043.34;5090574;28;20436;-52
2023/08/06 05:08:18;;;;;;;13.53;7.03;;;;;;;-143.84;74.72;45031.94;5090513;28;20501;-52
2023/08/06 05:10:45;;;;;;;13.73;5.87;;;;;;;-143.84;75.39;45018.59;5090513;28;20971;-52
2023/08/06 05:13:12;;;;;;;14.43;6.80;;;;;;;-143.84;74.28;45012.88;5090622;28;20436;-52
2023/08/06 05:15:42;;;;;;;12.23;5.80;;;;;;;-143.84;75.41;45016.69;5090283;28;20440;-52
2023/08/06 05:18:09;;;;;;;16.53;7.20;;;;;;;-143.84;76.35;45028.13;5090315;28;20448;-52
2023/08/06 05:20:39;;;;;;;15.60;7.10;;;;;;;-143.84;76.88;45014.78;5090638;28;20446;-52
2023/08/06 05:23:06;;;;;;;20.17;7.20;;;;;;;-143.84;77.88;45005.28;5090511;28;20431;-52
2023/08/06 05:25:35;;;;;;;14.60;6.80;;;;;;;-143.84;78.54;45003.38;5090355;28;20435;-52
2023/08/06 05:28:02;;;;;;;8.97;5.97;;;;;;;-143.84;78.99;45031.94;5090099;28;20440;-53
2023/08/06 05:30:29;;;;;;;13.23;7.20;;;;;;;-143.84;79.97;45022.41;5089469;28;20435;-52
2023/08/06 05:32:57;;;;;;;16.57;6.77;;;;;;;-143.84;81.04;45022.41;5090024;28;20532;-51
2023/08/06 05:35:24;;;;;;;10.53;6.23;;;;;;;-143.84;78.95;45014.78;5090410;28;20436;-52
2023/08/06 05:37:53;;;;;;;11.53;6.50;;;;;;;-143.84;78.36;45041.44;5090169;28;20486;-51
2023/08/06 05:40:20;;;;;;;9.97;5.83;;;;;;;-143.84;79.04;45022.41;5090022;28;20839;-52
2023/08/06 05:42:47;;;;;;;11.83;5.10;;;;;;;-143.84;79.51;45049.06;5090445;28;20497;-52
2023/08/06 05:45:14;;;;;;;11.53;6.67;;;;;;;-143.84;79.74;45041.44;5089970;28;20478;-52
2023/08/06 05:47:41;;;;;;;7.80;5.43;;;;;;;-143.84;79.87;45062.41;5089855;28;20436;-53
2023/08/06 05:50:10;;;;;;;10.73;6.67;;;;;;;-143.84;80.23;45010.97;5089937;28;20458;-52
2023/08/06 05:52:37;;;;;;;6.93;6.30;;;;;;;-143.84;79.68;45003.38;5089751;28;20571;-52
2023/08/06 05:55:06;;;;;;;7.57;6.07;;;;;;;-143.84;79.31;45033.84;5090165;28;20944;-52
2023/08/06 05:57:33;;;;;;;7.10;6.23;;;;;;;-143.84;80.00;45030.03;5090008;28;20444;-51
2023/08/06 06:00:01;;;;;;;7.83;6.40;;;;;;;-143.84;80.21;45043.34;5089998;28;20436;-52
2023/08/06 06:02:28;;;;;;;12.47;6.83;;;;;;;-143.84;81.42;45028.13;5089816;28;20502;-52
2023/08/06 06:04:55;;;;;;;13.40;6.73;;;;;;;-143.84;82.35;45010.97;5089815;28;20776;-52
2023/08/06 06:07:22;;;;;;;9.77;6.30;;;;;;;-143.84;81.20;45054.78;5089815;28;21054;-52
2023/08/06 06:09:49;;;;;;;17.83;7.10;;;;;;;-143.84;81.80;45018.59;5078912;28;20453;-51
2023/08/06 06:12:18;;;;;;;10.13;6.30;;;;;;;-143.84;80.90;45039.53;5089809;28;21004;-52
2023/08/06 06:14:45;;;;;;;8.20;6.37;;;;;;;-143.84;80.13;45041.44;5089904;28;20443;-53
2023/08/06 06:17:12;;;;;;;11.60;6.10;;;;;;;-143.84;79.99;45016.69;5089826;28;20443;-52
2023/08/06 06:19:39;;;;;;;13.67;6.60;;;;;;;-143.84;79.57;45024.31;5089742;28;20497;-53
2023/08/06 06:22:06;;;;;;;22.00;6.40;;;;;;;-143.84;77.94;45018.59;5089933;28;20439;-52
2023/08/06 06:24:34;;;;;;;10.20;6.00;;;;;;;-143.84;78.04;45007.19;5089753;28;20444;-53
2023/08/06 06:27:01;;;;;;;12.23;6.33;;;;;;;-143.84;77.71;45003.38;5090094;28;20436;-53
2023/08/06 06:29:30;;;;;;;12.13;5.40;;;;;;;-143.84;76.87;45030.03;5089470;28;20493;-52
2023/08/06 06:31:57;;;;;;;6.63;5.50;;;;;;;-143.84;74.81;45003.38;5089717;28;20481;-53
2023/08/06 06:34:24;;;;;;;8.97;5.80;;;;;;;-143.84;75.00;44988.13;5089535;28;20983;-53
2023/08/06 06:36:51;;;;;;;12.83;4.43;;;;;;;-143.84;72.72;45010.97;5089666;28;20436;-52
2023/08/06 06:39:19;;;;;;;7.60;5.00;;;;;;;-143.84;73.03;45005.28;5089622;28;20995;-53
2023/08/06 06:41:46;;;;;;;7.10;5.27;;;;;;;-143.84;74.13;45009.09;5092502;28;20424;-52
2023/08/06 06:44:15;;;;;;;11.00;5.87;;;;;;;-143.84;75.43;45010.97;5093151;28;20493;-53
2023/08/06 06:46:43;;;;;;;10.93;6.10;;;;;;;-143.84;76.66;44991.94;5093133;28;20467;-52
2023/08/06 06:49:10;;;;;;;13.67;5.27;;;;;;;-143.84;77.02;45022.41;5093527;28;20485;-52
2023/08/06 06:51:37;;;;;;;12.77;5.73;;;;;;;-143.84;74.01;45020.50;5093446;28;20547;-52
2023/08/06 06:54:05;;;;;;;11.90;5.10;;;;;;;-143.84;73.36;45009.09;5093353;28;20435;-52
2023/08/06 06:56:32;;;;;;;12.57;5.63;;;;;;;-143.84;73.72;44999.56;5092915;28;20447;-53
2023/08/06 06:58:59;;;;;;;14.60;6.77;;;;;;;-143.84;73.92;45014.78;5092873;28;20443;-53
2023/08/06 07:01:26;;;;;;;14.37;6.20;;;;;;;-143.84;74.29;45030.03;5092965;28;20436;-53
2023/08/06 07:03:54;;;;;;;19.87;5.97;;;;;;;-143.84;75.18;44990.03;5092751;28;20558;-53
2023/08/06 07:06:22;;;;;;;5.90;5.33;;;;;;;-143.84;76.06;45014.78;5093022;28;20448;-53
2023/08/06 07:08:49;;;;;;;9.33;5.90;;;;;;;-143.84;77.21;45010.97;5092782;28;20500;-52
2023/08/06 07:11:16;;;;;;;10.27;5.70;;;;;;;-143.84;77.59;44997.66;5092764;28;20431;-52
2023/08/06 07:13:43;;;;;;;16.73;6.47;;;;;;;-143.84;77.89;45043.34;5092558;28;20431;-52
2023/08/06 07:16:10;;;;;;;11.43;6.20;;;;;;;-143.84;77.00;45020.50;5092326;28;20496;-53
2023/08/06 07:18:37;;;;;;;8.07;5.73;;;;;;;-143.84;77.08;45028.13;5092166;28;20921;-53
2023/08/06 07:21:05;;;;;;;7.10;5.77;;;;;;;-143.84;76.09;45028.13;5092535;28;20436;-53
2023/08/06 07:23:32;;;;;;;10.80;6.00;;;;;;;-143.84;76.47;45033.84;5092787;28;20444;-52
2023/08/06 07:26:00;;;;;;;8.37;5.80;;;;;;;-143.84;75.98;45033.84;5092680;28;20882;-53
2023/08/06 07:28:27;;;;;;;9.90;5.63;;;;;;;-143.84;73.70;45010.97;5092677;28;20439;-53
2023/08/06 07:30:54;;;;;;;14.20;5.47;;;;;;;-143.84;73.22;44988.13;5092820;28;20432;-53
2023/08/06 07:33:21;;;;;;;6.30;5.70;;;;;;;-143.84;72.25;44984.31;5092177;28;20483;-56
2023/08/06 07:35:48;;;;;;;10.43;5.20;;;;;;;-143.84;71.34;45001.47;5092004;28;20436;-56
2023/08/06 07:38:16;;;;;;;12.83;5.63;;;;;;;-143.84;73.28;45009.09;5091948;28;20564;-56
2023/08/06 07:40:44;;;;;;;8.80;5.30;;;;;;;-143.84;74.55;44999.56;5091816;28;20854;-56
2023/08/06 07:43:11;;;;;;;10.17;5.70;;;;;;;-143.84;71.50;44978.63;5091163;28;20440;-56
2023/08/06 07:45:38;;;;;;;8.03;5.33;;;;;;;-143.84;71.45;44982.41;5091648;28;20488;-56
2023/08/06 07:48:06;;;;;;;7.63;4.90;;;;;;;-143.84;72.19;45003.38;5091544;28;20428;-56
2023/08/06 07:50:33;;;;;;;11.73;6.13;;;;;;;-143.84;74.30;44993.84;5091683;28;20440;-55
2023/08/06 07:53:00;;;;;;;18.30;6.60;;;;;;;-143.84;74.95;45005.28;5090766;28;21172;-56
2023/08/06 07:55:29;;;;;;;22.53;6.80;;;;;;;-143.84;75.45;44986.22;5091233;28;20442;-55
2023/08/06 07:57:56;;;;;;;7.47;5.00;;;;;;;-143.84;75.22;45007.19;5091450;28;20803;-56
2023/08/06 08:00:23;;;;;;;9.13;5.03;;;;;;;-143.84;74.85;45016.69;5092313;28;20845;-56
2023/08/06 08:02:50;;;;;;;9.20;5.30;;;;;;;-143.84;73.69;44990.03;5092402;28;20544;-56
2023/08/06 08:05:17;;;;;;;6.73;5.90;;;;;;;-143.84;74.57;44999.56;5092414;28;20498;-57
2023/08/06 08:07:44;;;;;;;9.27;5.20;;;;;;;-143.84;72.67;44965.28;5092933;28;20424;-56
2023/08/06 08:10:11;;;;;;;7.20;5.20;;;;;;;-143.84;72.31;44976.72;5092392;28;20440;-56
2023/08/06 08:12:40;;;;;;;9.23;5.30;;;;;;;-143.84;70.91;44965.28;5092853;28;20479;-56
2023/08/06 08:15:08;;;;;;;11.80;4.93;;;;;;;-143.84;71.00;44976.72;5092565;28;20455;-56
2023/08/06 08:17:35;;;;;;;9.47;5.97;;;;;;;-143.84;71.62;44976.72;5092315;28;20443;-56
2023/08/06 08:20:03;;;;;;;12.77;5.80;;;;;;;-143.84;70.14;44971.00;5092697;28;20493;-56
2023/08/06 08:22:30;;;;;;;15.50;5.20;;;;;;;-143.84;69.69;44957.66;5092297;28;20489;-56
2023/08/06 08:24:57;;;;;;;10.33;5.43;;;;;;;-143.84;68.58;44959.56;5092399;28;20440;-56
2023/08/06 08:27:24;;;;;;;13.00;5.17;;;;;;;-143.84;66.48;45009.09;5092277;28;20440;-57
2023/08/06 08:29:52;;;;;;;14.10;5.17;;;;;;;-143.84;67.95;44963.38;5092271;28;20436;-57
2023/08/06 08:32:19;;;;;;;8.20;4.83;;;;;;;-143.84;68.59;44957.66;5091780;28;20484;-56
2023/08/06 08:34:47;;;;;;;8.53;4.73;;;;;;;-143.84;64.39;44976.72;5092471;28;20440;-56
2023/08/06 08:37:14;;;;;;;9.57;4.60;;;;;;;-143.84;64.66;44982.41;5083751;28;20436;-57
2023/08/06 08:39:41;;;;;;;12.13;4.93;;;;;;;-143.84;66.71;44978.63;5088584;28;20429;-56
2023/08/06 08:42:11;;;;;;;7.70;4.83;;;;;;;-143.84;67.90;44963.38;5087182;28;20436;-56
2023/08/06 08:44:39;;;;;;;9.30;4.90;;;;;;;-143.84;66.95;44971.00;5086753;28;20478;-56
2023/08/06 08:47:09;;;;;;;11.13;4.50;;;;;;;-143.84;67.78;44993.84;5085887;28;20435;-56
2023/08/06 08:49:37;;;;;;;5.97;4.43;;;;;;;-143.84;66.18;44990.03;5086394;28;21192;-56
2023/08/06 08:52:07;;;;;;;7.13;5.40;;;;;;;-143.84;66.81;44953.88;5085150;28;20561;-56
2023/08/06 08:54:35;;;;;;;9.57;4.93;;;;;;;-143.84;67.11;44972.91;5083676;28;20452;-56
2023/08/06 08:57:02;;;;;;;8.47;5.73;;;;;;;-143.84;69.98;44980.53;5082571;28;20518;-55
2023/08/06 08:59:29;;;;;;;9.20;4.47;;;;;;;-143.84;67.67;44974.81;5083008;28;20424;-55
2023/08/06 09:01:57;;;;;;;8.83;5.20;;;;;;;-143.84;68.92;44953.88;5082588;28;20436;-55
2023/08/06 09:04:28;;;;;;;7.13;5.20;;;;;;;-143.84;64.88;44978.63;5081326;28;20444;-55
2023/08/06 09:06:58;;;;;;;5.37;4.47;;;;;;;-143.84;66.48;44955.75;5081076;28;20440;-55
2023/08/06 09:09:29;;;;;;;8.60;3.73;;;;;;;-143.84;63.94;44971.00;5082757;28;20444;-55
2023/08/06 09:12:01;;;;;;;8.47;5.30;;;;;;;-143.84;64.77;44972.91;5084303;28;20501;-55
2023/08/06 09:14:29;;;;;;;7.93;4.33;;;;;;;-143.84;68.12;44974.81;5089758;28;20432;-55
2023/08/06 09:16:56;;;;;;;10.83;5.30;;;;;;;-143.84;64.94;44955.75;5085156;28;20432;-55
2023/08/06 09:19:23;;;;;;;15.57;5.60;;;;;;;-143.84;66.26;44963.38;5089749;28;20440;-55
2023/08/06 09:21:52;;;;;;;5.90;4.97;;;;;;;-143.84;69.13;44986.22;5089584;28;20450;-55
2023/08/06 09:24:20;;;;;;;7.10;5.57;;;;;;;-143.84;64.88;44984.31;5090055;28;20425;-55
2023/08/06 09:26:47;;;;;;;10.93;5.20;;;;;;;-143.84;62.36;44967.19;5089111;28;20539;-55
2023/08/06 09:29:14;;;;;;;4.93;4.53;;;;;;;-143.84;63.74;44972.91;5089466;28;20441;-55
2023/08/06 09:31:42;;;;;;;9.80;5.50;;;;;;;-143.84;65.03;44959.56;5089087;28;20451;-55
2023/08/06 09:34:12;;;;;;;4.67;4.17;;;;;;;-143.84;61.38;44972.91;5089242;28;20494;-55
2023/08/06 09:36:42;;;;;;;7.53;3.70;;;;;;;-143.84;64.92;44955.75;5089037;28;20451;-55
2023/08/06 09:39:15;;;;;;;6.73;4.53;;;;;;;-143.84;63.84;44950.06;5089543;28;20433;-55
2023/08/06 09:41:43;;;;;;;7.93;5.10;;;;;;;-143.84;59.77;44953.88;5088850;28;20531;-55
2023/08/06 09:44:18;;;;;;;7.03;4.20;;;;;;;-143.84;61.89;44940.53;5089435;28;20493;-56
2023/08/06 09:46:49;;;;;;;13.33;4.37;;;;;;;-143.84;61.15;44942.44;5089077;28;20434;-55
2023/08/06 09:49:16;;;;;;;6.50;5.27;;;;;;;-143.84;63.71;44951.97;5089679;28;20458;-55
2023/08/06 09:51:44;;;;;;;15.10;4.27;;;;;;;-143.84;62.88;44984.31;5089316;28;20440;-55
2023/08/06 09:54:13;;;;;;;10.33;4.70;;;;;;;-143.84;64.11;44950.06;5089164;28;20487;-55
2023/08/06 09:56:43;;;;;;;13.13;4.93;;;;;;;-143.84;62.74;44961.47;5088697;28;20436;-55
2023/08/06 09:59:11;;;;;;;14.70;5.00;;;;;;;-143.84;63.94;44972.91;5089136;28;20477;-55
2023/08/06 10:01:38;;;;;;;5.37;4.40;;;;;;;-143.84;65.00;44951.97;5089158;28;20436;-55
2023/08/06 10:04:08;;;;;;;10.87;5.17;;;;;;;-143.84;62.64;44980.53;5088675;28;20491;-55
2023/08/06 10:06:36;;;;;;;10.50;4.63;;;;;;;-143.84;63.31;45009.09;5088944;28;20513;-55
2023/08/06 10:09:04;;;;;;;17.63;5.30;;;;;;;-143.84;64.02;44957.66;5089215;28;21044;-55
2023/08/06 10:11:31;;;;;;;6.33;4.13;;;;;;;-143.84;64.81;44972.91;5088590;28;20471;-55
2023/08/06 10:14:07;;;;;;;8.87;5.10;;;;;;;-143.84;63.26;44944.34;5089069;28;21097;-55
2023/08/06 10:16:35;;;;;;;12.57;5.00;;;;;;;-143.84;63.65;44951.97;5088914;28;20448;-55
2023/08/06 10:19:02;;;;;;;13.30;4.67;;;;;;;-143.84;64.37;44946.25;5089030;28;21176;-55
2023/08/06 10:21:31;;;;;;;14.33;4.83;;;;;;;-143.84;63.36;44927.19;5089353;28;20436;-55
2023/08/06 10:23:59;;;;;;;14.57;4.60;;;;;;;-143.84;62.40;44991.94;5088783;28;20501;-55
2023/08/06 10:26:30;;;;;;;12.10;5.40;;;;;;;-143.84;64.45;44932.91;5088335;28;20440;-55
2023/08/06 10:28:57;;;;;;;7.63;4.40;;;;;;;-143.84;66.60;44946.25;5088739;28;20444;-55
2023/08/06 10:31:56;;;;;;;9.40;5.50;;;;;;;-143.84;65.10;44953.88;5089075;28;20531;-55
2023/08/06 10:34:23;;;;;;;8.60;5.07;;;;;;;-143.84;63.56;44974.81;5088696;28;20529;-56
2023/08/06 10:36:50;;;;;;;7.70;5.10;;;;;;;-143.84;68.48;44974.81;5088798;28;20493;-55
2023/08/06 10:39:17;;;;;;;4.73;4.23;;;;;;;-143.84;65.94;44969.09;5088777;28;20953;-55
2023/08/06 10:41:44;;;;;;;6.30;4.40;;;;;;;-143.84;63.86;44953.88;5088332;28;20494;-55
2023/08/06 10:44:12;;;;;;;4.87;4.20;;;;;;;-143.84;65.11;44948.16;5088601;28;20867;-55
2023/08/06 10:46:39;;;;;;;6.10;4.50;;;;;;;-143.84;64.75;44974.81;5089293;28;20440;-52
2023/08/06 10:49:08;;;;;;;8.13;4.43;;;;;;;-143.84;64.94;44984.31;5089715;28;20439;-52
2023/08/06 10:51:36;;;;;;;17.07;5.23;;;;;;;-143.84;64.35;44972.91;5089678;28;20440;-52
2023/08/06 10:54:03;;;;;;;10.40;5.00;;;;;;;-143.84;65.17;44990.03;5089676;28;20475;-52
2023/08/06 10:56:31;;;;;;;9.03;4.90;;;;;;;-143.84;65.51;44957.66;5088622;28;20509;-53
2023/08/06 10:58:58;;;;;;;7.93;5.70;;;;;;;-143.84;68.24;44963.38;5089363;28;20444;-52
2023/08/06 11:01:29;;;;;;;8.10;5.77;;;;;;;-143.84;66.62;44974.81;5089125;28;20493;-52
2023/08/06 11:03:57;;;;;;;5.57;4.90;;;;;;;-143.84;67.82;44984.31;5088919;28;20480;-52
2023/08/06 11:06:27;;;;;;;14.53;5.17;;;;;;;-143.84;67.47;44980.53;5089282;28;20448;-52
2023/08/06 11:08:55;;;;;;;13.50;4.90;;;;;;;-143.84;66.56;44976.72;5069107;28;20453;-53